Terminal Aerodrome Forecast
Issued by NWS

Home | Current Version | Previous Version | Text Only | Print | Product List | Glossary On
Versions: 1 2 3 4 5 6 7 8 9 10 11 12 13
000
FTUS41 KPHI 020520
TAFPNE
TAF
KPNE 020520Z 0206/0306 VRB03KT 5SM BR FEW060
      TEMPO 0209/0212 2SM BR
     FM021400 21006KT P6SM FEW050
     FM022100 14005KT P6SM SCT250=

USA.gov is the U.S. government's official web portal to all federal, state and local government web resources and services.